Time,TemperatureF,DewpointF,PressureIn,WindDirection,WindDirectionDegrees,WindSpeedMPH,WindSpeedGustMPH,Humidity,HourlyPrecipIn,Conditions,Clouds,dailyrainin,SolarRadiationWatts/m^2,SoftwareType,DateUTC
2013-07-23 00:22:00,60.0,54.0,-100.00,NW,311,6.0,14.0,80,0.00,,,0.07,0.000000,,2013-07-23 04:22:00,
2013-07-23 00:32:00,60.0,54.0,-100.00,NW,311,6.0,14.0,80,0.00,,,0.07,0.000000,,2013-07-23 04:32:00,
2013-07-23 00:43:00,60.0,54.0,-100.00,NW,311,6.0,14.0,80,0.00,,,0.07,0.000000,,2013-07-23 04:43:00,
2013-07-23 00:53:00,60.0,54.0,-100.00,NW,311,6.0,14.0,80,0.00,,,0.07,0.000000,,2013-07-23 04:53:00,
2013-07-23 01:22:00,57.0,51.0,-100.00,NW,318,3.0,11.0,81,0.00,,,0.07,0.000000,,2013-07-23 05:22:00,
2013-07-23 01:33:00,57.0,51.0,-100.00,NW,318,3.0,11.0,81,0.00,,,0.07,0.000000,,2013-07-23 05:33:00,
2013-07-23 01:44:00,57.0,51.0,-100.00,NW,318,3.0,11.0,81,0.00,,,0.07,0.000000,,2013-07-23 05:44:00,
2013-07-23 01:52:00,57.0,51.0,-100.00,NW,318,3.0,11.0,81,0.00,,,0.07,0.000000,,2013-07-23 05:52:00,
2013-07-23 02:22:00,52.0,50.0,-100.00,SW,221,1.0,7.0,92,0.00,,,0.07,0.000000,,2013-07-23 06:22:00,
2013-07-23 02:33:00,52.0,50.0,-100.00,SW,221,1.0,7.0,92,0.00,,,0.07,0.000000,,2013-07-23 06:33:00,
2013-07-23 02:42:00,52.0,50.0,-100.00,SW,221,1.0,7.0,92,0.00,,,0.07,0.000000,,2013-07-23 06:42:00,
2013-07-23 02:52:00,52.0,50.0,-100.00,SW,221,1.0,7.0,92,0.00,,,0.07,0.000000,,2013-07-23 06:52:00,
2013-07-23 05:22:00,52.0,50.0,-100.00,NW,312,5.0,11.0,92,-99.99,,,0.07,0.000000,,2013-07-23 09:22:00,
2013-07-23 05:33:00,52.0,50.0,-100.00,NW,312,5.0,11.0,92,-99.99,,,0.07,0.000000,,2013-07-23 09:33:00,
2013-07-23 05:42:00,52.0,50.0,-100.00,NW,312,5.0,11.0,92,-99.99,,,0.07,0.000000,,2013-07-23 09:42:00,
2013-07-23 05:53:00,52.0,50.0,-100.00,NW,312,5.0,11.0,92,-99.99,,,0.07,0.000000,,2013-07-23 09:53:00,
2013-07-23 06:22:00,51.0,46.0,-100.00,NW,323,4.0,14.0,83,0.00,,,0.07,0.000000,,2013-07-23 10:22:00,
2013-07-23 06:32:00,51.0,46.0,-100.00,NW,323,4.0,14.0,83,0.00,,,0.07,0.000000,,2013-07-23 10:32:00,
2013-07-23 06:44:00,51.0,46.0,-100.00,NW,323,4.0,14.0,83,0.00,,,0.07,0.000000,,2013-07-23 10:44:00,
2013-07-23 06:52:00,51.0,46.0,-100.00,NW,323,4.0,14.0,83,0.00,,,0.07,0.000000,,2013-07-23 10:52:00,
2013-07-23 07:22:00,52.0,48.0,-100.00,NNW,327,4.0,8.0,86,0.00,,,0.07,4.000000,,2013-07-23 11:22:00,
2013-07-23 07:32:00,52.0,48.0,-100.00,NNW,327,4.0,8.0,86,0.00,,,0.07,4.000000,,2013-07-23 11:32:00,
2013-07-23 07:43:00,52.0,48.0,-100.00,NNW,327,4.0,8.0,86,0.00,,,0.07,4.000000,,2013-07-23 11:43:00,
2013-07-23 07:52:00,52.0,48.0,-100.00,NNW,327,4.0,8.0,86,0.00,,,0.07,4.000000,,2013-07-23 11:52:00,
2013-07-23 08:22:00,54.0,48.0,-100.00,NNW,343,5.0,13.0,80,0.00,,,0.07,35.000000,,2013-07-23 12:22:00,
2013-07-23 08:33:00,54.0,48.0,-100.00,NNW,343,5.0,13.0,80,0.00,,,0.07,35.000000,,2013-07-23 12:33:00,
2013-07-23 08:43:00,54.0,48.0,-100.00,NNW,343,5.0,13.0,80,0.00,,,0.07,35.000000,,2013-07-23 12:43:00,
2013-07-23 09:22:00,56.0,49.0,-100.00,NNW,348,6.0,19.0,77,0.00,,,0.07,88.000000,,2013-07-23 13:22:00,
2013-07-23 09:32:00,56.0,49.0,-100.00,NNW,348,6.0,19.0,77,0.00,,,0.07,88.000000,,2013-07-23 13:32:00,
2013-07-23 09:43:00,56.0,49.0,-100.00,NNW,348,6.0,19.0,77,0.00,,,0.07,88.000000,,2013-07-23 13:43:00,
2013-07-23 09:52:00,56.0,49.0,-100.00,NNW,348,6.0,19.0,77,0.00,,,0.07,88.000000,,2013-07-23 13:52:00,
2013-07-23 10:22:00,57.0,47.0,-100.00,North,6,8.0,19.0,68,0.00,,,0.07,258.000000,,2013-07-23 14:22:00,
2013-07-23 10:33:00,57.0,47.0,-100.00,North,6,8.0,19.0,68,0.00,,,0.07,258.000000,,2013-07-23 14:33:00,
2013-07-23 10:44:00,57.0,47.0,-100.00,North,6,8.0,19.0,68,0.00,,,0.07,258.000000,,2013-07-23 14:44:00,
2013-07-23 10:53:00,57.0,47.0,-100.00,North,6,8.0,19.0,68,0.00,,,0.07,258.000000,,2013-07-23 14:53:00,
2013-07-23 11:24:00,58.0,45.0,-100.00,North,359,8.0,20.0,61,0.00,,,0.07,565.000000,,2013-07-23 15:24:00,
2013-07-23 11:32:00,58.0,45.0,-100.00,North,359,8.0,20.0,61,0.00,,,0.07,565.000000,,2013-07-23 15:32:00,
2013-07-23 11:43:00,58.0,45.0,-100.00,North,359,8.0,20.0,61,0.00,,,0.07,565.000000,,2013-07-23 15:43:00,
2013-07-23 11:52:00,58.0,45.0,-100.00,North,359,8.0,20.0,61,0.00,,,0.07,565.000000,,2013-07-23 15:52:00,
2013-07-23 12:22:00,61.0,49.0,-100.00,NNE,12,7.0,15.0,64,0.00,,,0.07,547.000000,,2013-07-23 16:22:00,
2013-07-23 12:33:00,61.0,49.0,-100.00,NNE,12,7.0,15.0,64,0.00,,,0.07,547.000000,,2013-07-23 16:33:00,
2013-07-23 12:43:00,61.0,49.0,-100.00,NNE,12,7.0,15.0,64,0.00,,,0.07,547.000000,,2013-07-23 16:43:00,
2013-07-23 12:52:00,61.0,49.0,-100.00,NNE,12,7.0,15.0,64,0.00,,,0.07,547.000000,,2013-07-23 16:52:00,
2013-07-23 13:32:00,60.0,47.0,-100.00,North,0,7.0,19.0,63,0.00,,,0.07,536.000000,,2013-07-23 17:32:00,
2013-07-23 13:42:00,60.0,47.0,-100.00,North,0,7.0,19.0,63,0.00,,,0.07,536.000000,,2013-07-23 17:42:00,
2013-07-23 13:54:00,60.0,47.0,-100.00,North,0,7.0,19.0,63,0.00,,,0.07,536.000000,,2013-07-23 17:54:00,
2013-07-23 14:24:00,63.0,47.0,-100.00,NNW,344,7.0,18.0,55,0.00,,,0.07,857.000000,,2013-07-23 18:24:00,
2013-07-23 14:34:00,63.0,47.0,-100.00,NNW,344,7.0,18.0,55,0.00,,,0.07,857.000000,,2013-07-23 18:34:00,
2013-07-23 14:48:00,63.0,47.0,-100.00,NNW,344,7.0,18.0,55,0.00,,,0.07,857.000000,,2013-07-23 18:48:00,
2013-07-23 14:55:00,63.0,47.0,-100.00,NNW,344,7.0,18.0,55,0.00,,,0.07,857.000000,,2013-07-23 18:55:00,
2013-07-23 15:27:00,65.0,46.0,-100.00,North,10,8.0,17.0,51,0.00,,,0.07,1156.000000,,2013-07-23 19:27:00,
2013-07-23 15:33:00,65.0,46.0,-100.00,North,10,8.0,17.0,51,0.00,,,0.07,1156.000000,,2013-07-23 19:33:00,
2013-07-23 15:46:00,65.0,46.0,-100.00,North,10,8.0,17.0,51,0.00,,,0.07,1156.000000,,2013-07-23 19:46:00,
2013-07-23 15:53:00,65.0,46.0,-100.00,North,10,8.0,17.0,51,0.00,,,0.07,1156.000000,,2013-07-23 19:53:00,
2013-07-23 16:34:00,65.0,46.0,-100.00,North,11,8.0,17.0,50,0.00,,,0.07,1029.000000,,2013-07-23 20:34:00,
2013-07-23 16:45:00,65.0,46.0,-100.00,North,11,8.0,17.0,50,0.00,,,0.07,1029.000000,,2013-07-23 20:45:00,
2013-07-23 17:23:00,65.0,45.0,-100.00,NW,317,6.0,14.0,48,0.00,,,0.07,823.000000,,2013-07-23 21:23:00,
2013-07-23 17:36:00,65.0,45.0,-100.00,NW,317,6.0,14.0,48,0.00,,,0.07,823.000000,,2013-07-23 21:36:00,
2013-07-23 17:54:00,65.0,45.0,-100.00,NW,317,6.0,14.0,48,0.00,,,0.07,823.000000,,2013-07-23 21:54:00,
2013-07-23 17:56:00,66.0,46.0,-100.00,North,351,6.0,14.0,49,0.00,,,0.03,715.000000,,2013-07-23 21:56:00,
2013-07-23 18:34:00,66.0,46.0,-100.00,North,351,6.0,14.0,49,0.00,,,0.03,715.000000,,2013-07-23 22:34:00,
2013-07-23 18:45:00,66.0,46.0,-100.00,North,351,6.0,14.0,49,0.00,,,0.03,715.000000,,2013-07-23 22:45:00,
2013-07-23 18:56:00,66.0,46.0,-100.00,NW,322,6.0,11.0,49,0.00,,,0.00,586.000000,,2013-07-23 22:56:00,
2013-07-23 19:24:00,66.0,46.0,-100.00,NW,322,6.0,11.0,49,0.00,,,0.00,586.000000,,2013-07-23 23:24:00,
2013-07-23 19:35:00,66.0,46.0,-100.00,NW,322,6.0,11.0,49,0.00,,,0.00,586.000000,,2013-07-23 23:35:00,
2013-07-23 19:44:00,66.0,46.0,-100.00,NW,322,6.0,11.0,49,0.00,,,0.00,586.000000,,2013-07-23 23:44:00,
2013-07-23 20:26:00,66.0,48.0,-100.00,NW,310,3.0,11.0,53,0.00,,,0.00,397.000000,,2013-07-24 00:26:00,
2013-07-23 20:34:00,66.0,48.0,-100.00,NW,310,3.0,11.0,53,0.00,,,0.00,397.000000,,2013-07-24 00:34:00,
2013-07-23 20:48:00,66.0,48.0,-100.00,NW,310,3.0,11.0,53,0.00,,,0.00,397.000000,,2013-07-24 00:48:00,
2013-07-23 21:33:00,59.0,47.0,-100.00,NNW,342,2.0,7.0,64,0.00,,,0.00,163.000000,,2013-07-24 01:33:00,
2013-07-23 21:44:00,59.0,47.0,-100.00,NNW,342,2.0,7.0,64,0.00,,,0.00,163.000000,,2013-07-24 01:44:00,
2013-07-23 22:38:00,50.0,48.0,-100.00,SSW,212,0.0,3.0,94,0.00,,,0.00,9.000000,,2013-07-24 02:38:00,
2013-07-23 22:47:00,50.0,48.0,-100.00,SSW,212,0.0,3.0,94,0.00,,,0.00,9.000000,,2013-07-24 02:47:00,
2013-07-23 22:55:00,50.0,48.0,-100.00,SSW,212,0.0,3.0,94,0.00,,,0.00,9.000000,,2013-07-24 02:55:00,
2013-07-23 23:24:00,46.0,46.0,-100.00,NNE,24,0.0,0.0,99,0.00,,,0.00,0.000000,,2013-07-24 03:24:00,
2013-07-23 23:37:00,46.0,46.0,-100.00,NNE,24,0.0,0.0,99,0.00,,,0.00,0.000000,,2013-07-24 03:37:00,
2013-07-23 23:45:00,46.0,46.0,-100.00,NNE,24,0.0,0.0,99,0.00,,,0.00,0.000000,,2013-07-24 03:45:00,
2013-07-23 23:55:00,46.0,46.0,-100.00,NNE,24,0.0,0.0,99,0.00,,,0.00,0.000000,,2013-07-24 03:55:00,